createdAt,value
2016-05-29T00:00:41.776Z,15.5
2016-05-29T00:01:50.344Z,15.44
2016-05-29T00:02:41.798Z,15.5
2016-05-29T00:04:01.099Z,15.44
2016-05-29T00:04:43.381Z,15.43
2016-05-29T00:05:41.774Z,15.52
2016-05-29T00:06:54.482Z,15.47
2016-05-29T00:07:54.657Z,15.5
2016-05-29T00:09:07.551Z,15.43
2016-05-29T00:10:01.006Z,15.39
2016-05-29T00:10:41.990Z,15.47
2016-05-29T00:11:41.822Z,15.37
2016-05-29T00:12:42.042Z,15.3
2016-05-29T00:13:42.062Z,15.25
2016-05-29T00:14:42.111Z,15.26
2016-05-29T00:15:41.925Z,15.26
2016-05-29T00:16:42.131Z,15.18
2016-05-29T00:17:54.856Z,15.35
2016-05-29T00:18:54.890Z,15.36
2016-05-29T00:20:01.955Z,15.35
2016-05-29T00:20:42.736Z,15.33
2016-05-29T00:23:01.307Z,15.23
2016-05-29T00:23:42.291Z,15.25
2016-05-29T00:25:07.953Z,15.18
2016-05-29T00:25:51.940Z,15.1
2016-05-29T00:26:51.943Z,15.25
2016-05-29T00:27:53.382Z,15.19
2016-05-29T00:28:54.995Z,15.15
2016-05-29T00:29:52.013Z,15.17
2016-05-29T00:30:53.282Z,15.11
2016-05-29T00:31:53.315Z,15.17
2016-05-29T00:32:52.068Z,15.12
2016-05-29T00:33:52.009Z,15.1
2016-05-29T00:34:53.527Z,15.14
2016-05-29T00:35:53.529Z,15.07
2016-05-29T00:36:52.157Z,14.99
2016-05-29T00:37:52.175Z,15
2016-05-29T00:38:52.193Z,14.94
2016-05-29T00:39:52.212Z,14.92
2016-05-29T00:41:11.449Z,14.96
2016-05-29T00:42:05.014Z,14.96
2016-05-29T00:43:54.864Z,14.9
2016-05-29T00:44:13.786Z,14.96
2016-05-29T00:45:07.553Z,14.9
2016-05-29T00:46:07.572Z,14.92
2016-05-29T00:47:07.575Z,14.92
2016-05-29T00:48:07.624Z,14.86
2016-05-29T00:49:07.470Z,14.77
2016-05-29T00:50:07.958Z,14.77
2016-05-29T00:51:09.100Z,14.78
2016-05-29T00:52:07.714Z,14.73
2016-05-29T00:53:10.810Z,14.74
2016-05-29T00:54:07.422Z,14.67
2016-05-29T00:55:07.752Z,14.71
2016-05-29T00:56:09.193Z,14.68
2016-05-29T00:57:20.523Z,14.82
2016-05-29T00:58:07.792Z,14.77
2016-05-29T00:59:07.685Z,14.81
2016-05-29T01:00:20.671Z,14.77
2016-05-29T01:01:07.878Z,14.77
2016-05-29T01:02:07.974Z,14.74
2016-05-29T01:03:07.915Z,14.67
2016-05-29T01:04:08.026Z,14.62
2016-05-29T01:05:20.701Z,14.77
2016-05-29T01:06:09.360Z,14.74
2016-05-29T01:07:07.848Z,14.7
2016-05-29T01:08:09.443Z,14.81
2016-05-29T01:09:08.040Z,14.7
2016-05-29T01:10:08.058Z,14.81
2016-05-29T01:11:08.092Z,14.74
2016-05-29T01:12:20.845Z,14.61
2016-05-29T01:13:20.909Z,14.67
2016-05-29T01:14:08.162Z,14.58
2016-05-29T01:15:08.197Z,14.55
2016-05-29T01:16:09.606Z,14.52
2016-05-29T01:17:08.186Z,14.66
2016-05-29T01:18:09.502Z,14.66
2016-05-29T01:19:08.270Z,14.63
2016-05-29T01:20:08.350Z,14.68
2016-05-29T01:21:08.306Z,14.56
2016-05-29T01:22:08.309Z,14.58
2016-05-29T01:23:08.374Z,14.51
2016-05-29T01:24:08.205Z,14.56
2016-05-29T01:25:08.380Z,14.44
2016-05-29T01:26:09.805Z,14.55
2016-05-29T01:27:08.401Z,14.53
2016-05-29T01:28:08.513Z,14.56
2016-05-29T01:29:08.453Z,14.59
2016-05-29T01:30:08.488Z,14.53
2016-05-29T01:31:08.490Z,14.51
2016-05-29T01:32:08.540Z,14.44
2016-05-29T01:33:10.043Z,14.44
2016-05-29T01:34:08.545Z,14.38
2016-05-29T01:35:21.188Z,14.4
2016-05-29T01:36:09.379Z,14.43
2016-05-29T01:37:08.740Z,14.48
2016-05-29T01:38:08.649Z,14.4
2016-05-29T01:39:08.668Z,14.4
2016-05-29T01:40:08.514Z,14.44
2016-05-29T01:41:08.704Z,14.37
2016-05-29T01:42:17.707Z,14.41
2016-05-29T01:43:08.865Z,14.48
2016-05-29T01:44:27.947Z,14.34
2016-05-29T01:45:08.778Z,14.33
2016-05-29T01:47:08.845Z,14.23
2016-05-29T01:48:08.848Z,14.31
2016-05-29T01:49:08.694Z,14.41
2016-05-29T01:50:08.884Z,14.26
2016-05-29T01:51:21.559Z,14.28
2016-05-29T01:52:21.718Z,14.37
2016-05-29T01:53:28.142Z,14.33
2016-05-29T01:54:09.005Z,14.36
2016-05-29T01:55:08.991Z,14.26
2016-05-29T01:56:09.025Z,14.3
2016-05-29T01:57:12.060Z,14.28
2016-05-29T01:58:09.030Z,14.25
2016-05-29T01:59:08.894Z,14.26
2016-05-29T02:00:09.083Z,14.34
2016-05-29T02:01:09.102Z,14.18
2016-05-29T02:02:09.166Z,14.25
2016-05-29T02:03:09.138Z,14.18
2016-05-29T02:04:09.157Z,14.26
2016-05-29T02:05:10.597Z,14.26
2016-05-29T02:06:21.960Z,14.26
2016-05-29T02:07:09.289Z,14.28
2016-05-29T02:08:09.246Z,14.22
2016-05-29T02:09:09.265Z,14.23
2016-05-29T02:10:09.142Z,14.19
2016-05-29T02:11:09.284Z,14.12
2016-05-29T02:12:09.335Z,14.11
2016-05-29T02:13:21.915Z,14.12
2016-05-29T02:14:09.199Z,14.19
2016-05-29T02:15:09.405Z,14.15
2016-05-29T02:16:28.611Z,14.15
2016-05-29T02:17:12.567Z,14.2
2016-05-29T02:18:12.570Z,14.13
2016-05-29T02:19:12.587Z,14.15
2016-05-29T02:20:12.637Z,14.08
2016-05-29T02:21:31.858Z,14.05
2016-05-29T02:22:12.674Z,14.01
2016-05-29T02:24:31.929Z,14.04
2016-05-29T02:25:12.807Z,14.03
2016-05-29T02:27:25.516Z,14.08
2016-05-29T02:28:12.799Z,14.08
2016-05-29T02:29:38.380Z,14.16
2016-05-29T02:30:12.664Z,14.11
2016-05-29T02:31:12.854Z,14.08
2016-05-29T02:32:12.716Z,14.01
2016-05-29T02:33:25.625Z,13.98
2016-05-29T02:34:12.894Z,13.97
2016-05-29T02:35:13.177Z,13.98
2016-05-29T02:36:13.555Z,13.98
2016-05-29T02:37:12.979Z,13.98
2016-05-29T02:38:16.013Z,13.98
2016-05-29T02:39:12.876Z,13.94
2016-05-29T02:40:25.753Z,14
2016-05-29T02:41:13.054Z,13.93
2016-05-29T02:42:13.087Z,13.87
2016-05-29T02:43:12.949Z,13.83
2016-05-29T02:44:13.123Z,13.87
2016-05-29T02:45:13.126Z,13.79
2016-05-29T02:46:13.160Z,13.87
2016-05-29T02:47:13.022Z,13.89
2016-05-29T02:48:13.026Z,13.83
2016-05-29T02:49:13.262Z,13.87
2016-05-29T02:50:13.734Z,13.85
2016-05-29T02:51:13.361Z,13.86
2016-05-29T02:52:13.285Z,13.85
2016-05-29T02:53:22.586Z,13.83
2016-05-29T02:54:13.166Z,13.83
2016-05-29T02:55:14.763Z,13.8
2016-05-29T02:56:13.358Z,13.82
2016-05-29T02:57:16.409Z,13.86
2016-05-29T02:58:26.114Z,13.73
2016-05-29T02:59:19.679Z,13.78
2016-05-29T03:00:14.870Z,13.7
2016-05-29T03:01:13.450Z,13.76
2016-05-29T03:02:13.469Z,13.68
2016-05-29T03:03:13.330Z,13.68
2016-05-29T03:04:14.912Z,13.75
2016-05-29T03:05:13.540Z,13.71
2016-05-29T03:06:32.620Z,13.76
2016-05-29T03:07:26.310Z,13.83
2016-05-29T03:08:44.891Z,13.78
2016-05-29T03:09:13.597Z,13.73
2016-05-29T03:10:13.631Z,13.68
2016-05-29T03:11:13.493Z,13.79
2016-05-29T03:12:13.684Z,13.7
2016-05-29T03:13:13.529Z,13.78
2016-05-29T03:14:13.704Z,13.76
2016-05-29T03:15:13.863Z,13.75
2016-05-29T03:16:26.476Z,13.68
2016-05-29T03:17:26.400Z,13.73
2016-05-29T03:18:13.777Z,13.73
2016-05-29T03:19:13.842Z,13.78
2016-05-29T03:20:26.923Z,13.73
2016-05-29T03:21:13.864Z,13.71
2016-05-29T03:22:13.694Z,13.73
2016-05-29T03:23:13.901Z,13.76
2016-05-29T03:24:13.919Z,13.73
2016-05-29T03:25:14.311Z,13.76
2016-05-29T03:26:13.940Z,13.76
2016-05-29T03:27:26.552Z,13.75
2016-05-29T03:28:14.133Z,13.7
2016-05-29T03:29:13.838Z,13.71
2016-05-29T03:30:14.075Z,13.76
2016-05-29T03:31:15.469Z,13.71
2016-05-29T03:32:26.799Z,13.7
2016-05-29T03:33:33.286Z,13.78
2016-05-29T03:34:14.118Z,13.76
2016-05-29T03:35:14.135Z,13.75
2016-05-29T03:36:14.794Z,13.65
2016-05-29T03:37:14.172Z,13.75
2016-05-29T03:38:26.925Z,13.73
2016-05-29T03:39:14.240Z,13.78
2016-05-29T03:40:14.071Z,13.73
2016-05-29T03:41:14.308Z,13.75
2016-05-29T03:42:14.107Z,13.73
2016-05-29T03:43:14.142Z,13.76
2016-05-29T03:44:14.316Z,13.76
2016-05-29T03:45:14.397Z,13.71
2016-05-29T03:46:26.915Z,13.79
2016-05-29T03:47:17.403Z,13.73
2016-05-29T03:48:14.389Z,13.76
2016-05-29T03:49:14.392Z,13.73
2016-05-29T03:50:14.301Z,13.7
2016-05-29T03:51:14.445Z,13.83
2016-05-29T03:52:27.259Z,13.82
2016-05-29T03:53:27.200Z,13.82
2016-05-29T03:54:14.500Z,13.82
2016-05-29T03:55:14.517Z,13.83
2016-05-29T03:56:14.473Z,13.85
2016-05-29T03:57:14.570Z,13.86
2016-05-29T03:58:14.572Z,13.98
2016-05-29T03:59:14.606Z,13.98
2016-05-29T04:00:14.468Z,13.95
2016-05-29T04:01:14.659Z,14
2016-05-29T04:02:14.661Z,13.95
2016-05-29T04:03:14.757Z,13.97
2016-05-29T04:04:14.699Z,13.98
2016-05-29T04:05:16.983Z,13.98
2016-05-29T04:06:14.766Z,14.08
2016-05-29T04:07:14.815Z,14.18
2016-05-29T04:08:14.772Z,14.26
2016-05-29T04:09:14.665Z,14.25
2016-05-29T04:10:14.839Z,14.25
2016-05-29T04:11:16.263Z,14.25
2016-05-29T04:12:27.595Z,14.37
2016-05-29T04:13:14.894Z,14.45
2016-05-29T04:15:30.009Z,14.4
2016-05-29T04:16:30.059Z,14.43
2016-05-29T04:17:30.233Z,14.53
2016-05-29T04:18:30.267Z,14.56
2016-05-29T04:19:30.285Z,14.59
2016-05-29T04:20:43.398Z,14.61
2016-05-29T04:21:30.181Z,14.68
2016-05-29T04:22:56.031Z,14.7
2016-05-29T04:23:33.390Z,14.79
2016-05-29T04:25:45.536Z,14.86
2016-05-29T04:26:45.585Z,14.85
2016-05-29T04:28:17.028Z,14.82
2016-05-29T04:28:53.468Z,14.82
2016-05-29T04:29:45.796Z,14.94
2016-05-29T04:31:04.692Z,14.89
2016-05-29T04:31:45.692Z,14.97
2016-05-29T04:34:00.967Z,14.82
2016-05-29T04:35:00.985Z,14.73
2016-05-29T04:36:01.769Z,14.7
2016-05-29T04:37:01.021Z,14.58
2016-05-29T04:38:13.773Z,14.7
2016-05-29T04:39:13.808Z,14.61
2016-05-29T04:40:01.091Z,14.45
2016-05-29T04:41:32.391Z,14.56
2016-05-29T04:42:20.331Z,14.48
2016-05-29T04:43:01.147Z,14.34
2016-05-29T04:44:01.181Z,14.45
2016-05-29T04:45:01.198Z,14.45
2016-05-29T04:46:01.202Z,14.38
2016-05-29T04:47:04.267Z,14.37
2016-05-29T04:48:04.301Z,14.38
2016-05-29T04:49:01.273Z,14.49
2016-05-29T04:50:01.134Z,14.45
2016-05-29T04:51:04.215Z,14.43
2016-05-29T04:52:02.639Z,14.45
2016-05-29T04:53:14.095Z,14.51
2016-05-29T04:54:20.551Z,14.51
2016-05-29T04:55:01.226Z,14.55
2016-05-29T04:56:32.853Z,14.53
2016-05-29T04:57:12.794Z,14.66
2016-05-29T04:58:12.781Z,14.7
2016-05-29T04:59:25.627Z,14.67
2016-05-29T05:00:15.692Z,14.78
2016-05-29T05:01:38.508Z,14.78
2016-05-29T05:02:22.355Z,14.71
2016-05-29T05:03:48.013Z,14.74
2016-05-29T05:04:25.375Z,14.78
2016-05-29T05:06:25.599Z,14.9
2016-05-29T05:06:38.990Z,15
2016-05-29T05:07:39.024Z,14.96
2016-05-29T05:08:39.041Z,14.94
2016-05-29T05:09:58.297Z,14.97
2016-05-29T05:10:48.641Z,15.04
2016-05-29T05:11:42.332Z,14.97
2016-05-29T05:12:42.349Z,14.97
2016-05-29T05:13:55.105Z,15.1
2016-05-29T05:14:42.402Z,15.15
2016-05-29T05:16:08.096Z,15.22
2016-05-29T05:16:45.486Z,15.25
2016-05-29T05:18:58.962Z,15.39
2016-05-29T05:19:58.839Z,15.5
2016-05-29T05:21:00.437Z,15.59
2016-05-29T05:21:58.939Z,15.67
2016-05-29T05:23:02.067Z,15.85
2016-05-29T05:24:11.631Z,15.78
2016-05-29T05:24:59.088Z,15.98
2016-05-29T05:26:18.309Z,16
2016-05-29T05:27:02.280Z,15.99
2016-05-29T05:28:02.300Z,15.67
2016-05-29T05:29:02.395Z,15.73
2016-05-29T05:30:15.101Z,15.54
2016-05-29T05:31:02.369Z,15.63
2016-05-29T05:33:06.391Z,15.6
2016-05-29T05:33:31.813Z,15.6
2016-05-29T05:34:18.908Z,15.67
2016-05-29T05:35:19.146Z,15.72
2016-05-29T05:36:19.196Z,15.88
2016-05-29T05:37:19.136Z,15.87
2016-05-29T05:38:31.919Z,15.94
2016-05-29T05:39:19.047Z,15.96
2016-05-29T05:40:44.988Z,15.92
2016-05-29T05:41:28.787Z,16.02
2016-05-29T05:43:28.807Z,16.03
2016-05-29T05:44:44.060Z,16.09
2016-05-29T05:45:12.829Z,16.24
2016-05-29T05:46:12.816Z,16.16
2016-05-29T05:47:32.053Z,16.29
2016-05-29T05:48:14.306Z,16.16
2016-05-29T05:50:28.029Z,16.18
2016-05-29T05:51:28.596Z,16.24
2016-05-29T05:52:28.207Z,16.21
2016-05-29T05:53:28.287Z,16.24
2016-05-29T05:54:28.104Z,15.96
2016-05-29T05:55:47.465Z,15.87
2016-05-29T05:56:41.045Z,15.83
2016-05-29T05:58:47.380Z,15.91
2016-05-29T05:59:31.336Z,15.99
2016-05-29T06:00:31.213Z,15.92
2016-05-29T06:01:31.419Z,15.98
2016-05-29T06:02:50.624Z,15.99
2016-05-29T06:03:31.269Z,16
2016-05-29T06:05:02.602Z,16.05
2016-05-29T06:05:39.352Z,16.17
2016-05-29T06:06:31.885Z,16.1
2016-05-29T06:07:31.530Z,16.03
2016-05-29T06:08:31.407Z,16.09
2016-05-29T06:09:34.455Z,16.18
2016-05-29T06:10:31.599Z,16.17
2016-05-29T06:11:31.602Z,16.21
2016-05-29T06:12:31.511Z,16.21
2016-05-29T06:13:31.513Z,16.21
2016-05-29T06:14:31.688Z,16.17
2016-05-29T06:15:31.738Z,16.06
2016-05-29T06:16:44.459Z,16.03
2016-05-29T06:17:31.837Z,15.96
2016-05-29T06:18:31.621Z,15.83
2016-05-29T06:19:31.718Z,15.84
2016-05-29T06:20:32.407Z,15.83
2016-05-29T06:21:31.848Z,15.87
2016-05-29T06:22:34.740Z,15.87
2016-05-29T06:23:31.775Z,15.88
2016-05-29T06:24:38.184Z,15.91
2016-05-29T06:25:44.670Z,15.8
2016-05-29T06:26:45.595Z,15.91
2016-05-29T06:27:32.286Z,16
2016-05-29T06:28:32.007Z,16.03
2016-05-29T06:29:31.869Z,16.09
2016-05-29T06:30:31.872Z,16.12
2016-05-29T06:31:32.078Z,16.02
2016-05-29T06:32:32.065Z,16.13
2016-05-29T06:33:32.114Z,16.08
2016-05-29T06:34:32.116Z,16.06
2016-05-29T06:35:32.495Z,15.99
2016-05-29T06:36:32.169Z,16.05
2016-05-29T06:37:32.172Z,16.08
2016-05-29T06:38:32.205Z,16.16
2016-05-29T06:39:44.975Z,16.18
2016-05-29T06:40:32.243Z,16.24
2016-05-29T06:41:32.323Z,16.24
2016-05-29T06:42:32.155Z,16.31
2016-05-29T06:43:32.329Z,16.24
2016-05-29T06:44:32.393Z,16.09
2016-05-29T06:45:32.287Z,16.03
2016-05-29T06:46:38.681Z,16.06
2016-05-29T06:47:32.246Z,15.94
2016-05-29T06:48:32.420Z,15.96
2016-05-29T06:49:32.454Z,16.06
2016-05-29T06:50:32.347Z,16.16
2016-05-29T06:51:32.366Z,16
2016-05-29T06:52:32.634Z,16.12
2016-05-29T06:53:45.309Z,16.06
2016-05-29T06:54:32.452Z,15.98
2016-05-29T06:55:32.612Z,16.05
2016-05-29T06:56:32.457Z,16.03
2016-05-29T06:57:32.491Z,15.83
2016-05-29T06:58:32.557Z,15.85
2016-05-29T06:59:32.653Z,15.94
2016-05-29T07:00:32.562Z,15.76
2016-05-29T07:01:32.752Z,15.99
2016-05-29T07:02:32.739Z,15.8
2016-05-29T07:03:32.789Z,15.81
2016-05-29T07:04:32.807Z,15.81
2016-05-29T07:05:32.935Z,15.87
2016-05-29T07:06:32.578Z,15.85
2016-05-29T07:07:32.878Z,15.84
2016-05-29T07:08:45.630Z,15.99
2016-05-29T07:09:32.899Z,15.99
2016-05-29T07:10:32.917Z,15.9
2016-05-29T07:11:32.935Z,15.75
2016-05-29T07:12:32.954Z,15.73
2016-05-29T07:13:32.972Z,15.69
2016-05-29T07:14:33.037Z,15.72
2016-05-29T07:15:33.040Z,15.69
2016-05-29T07:16:33.058Z,15.55
2016-05-29T07:17:33.076Z,15.6
2016-05-29T07:18:52.360Z,15.59
2016-05-29T07:19:33.129Z,15.62
2016-05-29T07:20:33.147Z,15.55
2016-05-29T07:21:34.431Z,15.67
2016-05-29T07:22:52.231Z,15.75
2016-05-29T07:23:33.201Z,15.8
2016-05-29T07:24:33.236Z,15.81
2016-05-29T07:25:52.473Z,15.78
2016-05-29T07:26:36.445Z,15.62
2016-05-29T07:27:36.509Z,15.55
2016-05-29T07:28:36.309Z,15.45
2016-05-29T07:29:36.359Z,15.47
2016-05-29T07:30:36.517Z,15.57
2016-05-29T07:31:36.551Z,15.65
2016-05-29T07:32:36.414Z,15.62
2016-05-29T07:33:55.775Z,15.66
2016-05-29T07:34:36.592Z,15.65
2016-05-29T07:36:01.987Z,15.44
2016-05-29T07:36:36.925Z,15.44
2016-05-29T07:39:17.589Z,15.29
2016-05-29T07:39:51.933Z,15.39
2016-05-29T07:40:51.779Z,15.37
2016-05-29T07:41:51.813Z,15.33
2016-05-29T07:42:52.002Z,15.3
2016-05-29T07:43:51.850Z,15.12
2016-05-29T07:44:51.899Z,15.19
2016-05-29T07:46:11.280Z,15.12
2016-05-29T07:46:52.186Z,15.19
2016-05-29T07:48:23.379Z,15.22
2016-05-29T07:49:33.053Z,15.25
2016-05-29T07:50:07.227Z,15.23
2016-05-29T07:51:38.699Z,15.02
2016-05-29T07:52:19.982Z,14.96
2016-05-29T07:53:07.657Z,14.89
2016-05-29T07:54:07.473Z,14.93
2016-05-29T07:55:07.507Z,14.97
2016-05-29T07:57:48.481Z,15.02
2016-05-29T07:58:22.640Z,15.07
2016-05-29T07:59:22.830Z,15.05
2016-05-29T08:00:22.848Z,14.97
2016-05-29T08:01:22.992Z,14.99
2016-05-29T08:02:22.885Z,14.97
2016-05-29T08:03:22.934Z,14.99
2016-05-29T08:04:22.921Z,15.02
2016-05-29T08:05:23.674Z,15.08
2016-05-29T08:06:23.349Z,15.05
2016-05-29T08:07:23.008Z,15.11
2016-05-29T08:08:22.994Z,15.15
2016-05-29T08:09:35.763Z,15.18
2016-05-29T08:10:22.922Z,15.27
2016-05-29T08:11:23.066Z,15.26
2016-05-29T08:12:23.224Z,15.25
2016-05-29T08:13:23.133Z,15.23
2016-05-29T08:14:23.135Z,15.32
2016-05-29T08:15:23.170Z,15.29
2016-05-29T08:16:23.141Z,15.29
2016-05-29T08:17:26.237Z,15.27
2016-05-29T08:18:23.225Z,15.26
2016-05-29T08:19:23.243Z,15.22
2016-05-29T08:20:23.308Z,15.18
2016-05-29T08:21:23.514Z,15.17
2016-05-29T08:22:35.939Z,15.18
2016-05-29T08:23:23.332Z,15.15
2016-05-29T08:24:23.351Z,15.23
2016-05-29T08:25:23.384Z,15.11
2016-05-29T08:26:23.231Z,15.19
2016-05-29T08:27:23.506Z,15.25
2016-05-29T08:28:42.531Z,15.25
2016-05-29T08:29:36.259Z,15.23
2016-05-29T08:30:42.767Z,15.33
2016-05-29T08:31:23.606Z,15.41
2016-05-29T08:33:26.220Z,15.35
2016-05-29T08:33:39.002Z,15.39
2016-05-29T08:34:38.935Z,15.25
2016-05-29T08:35:38.977Z,15.36
2016-05-29T08:36:39.003Z,15.35
2016-05-29T08:37:56.493Z,15.25
2016-05-29T08:38:38.905Z,15.23
2016-05-29T08:39:39.083Z,15.27
2016-05-29T08:40:39.089Z,15.25
2016-05-29T08:41:39.063Z,15.27
2016-05-29T08:42:39.129Z,15.15
2016-05-29T08:43:39.007Z,15.15
2016-05-29T08:44:39.199Z,15.1
2016-05-29T08:45:40.639Z,15.05
2016-05-29T08:46:52.002Z,15.18
2016-05-29T08:47:39.270Z,15.18
2016-05-29T08:48:39.149Z,15.12
2016-05-29T08:49:42.324Z,14.99
2016-05-29T08:50:39.640Z,14.97
2016-05-29T08:51:39.908Z,14.94
2016-05-29T08:52:39.364Z,14.99
2016-05-29T08:53:39.399Z,15.12
2016-05-29T08:54:58.636Z,15.18
2016-05-29T08:55:39.281Z,15.14
2016-05-29T08:56:39.298Z,15.14
2016-05-29T08:57:40.739Z,15.18
2016-05-29T08:58:52.210Z,15.26
2016-05-29T08:59:39.634Z,15.25
2016-05-29T09:01:05.187Z,15.37
2016-05-29T09:01:39.609Z,15.35
2016-05-29T09:02:40.909Z,15.45
2016-05-29T09:03:39.645Z,15.5
2016-05-29T09:04:39.633Z,15.51
2016-05-29T09:05:39.635Z,15.48
2016-05-29T09:06:52.560Z,15.5
2016-05-29T09:07:41.094Z,15.5
2016-05-29T09:09:36.677Z,15.81
2016-05-29T09:09:49.224Z,15.75
2016-05-29T09:10:49.367Z,15.7
2016-05-29T09:11:52.291Z,15.6
2016-05-29T09:12:51.264Z,15.67
2016-05-29T09:13:49.282Z,15.54
2016-05-29T09:14:49.535Z,15.73
2016-05-29T09:16:02.243Z,15.73
2016-05-29T09:17:02.246Z,15.73
2016-05-29T09:17:51.824Z,15.76
2016-05-29T09:19:15.220Z,15.83
2016-05-29T09:19:49.438Z,15.85
2016-05-29T09:21:22.304Z,15.94
2016-05-29T09:21:49.679Z,15.96
2016-05-29T09:22:53.212Z,15.85
2016-05-29T09:23:49.684Z,15.96
2016-05-29T09:24:49.577Z,16.08
2016-05-29T09:25:49.782Z,16.06
2016-05-29T09:26:49.723Z,16.31
2016-05-29T09:27:53.757Z,16.28
2016-05-29T09:28:49.775Z,16.46
2016-05-29T09:30:02.546Z,16.5
2016-05-29T09:31:02.564Z,16.26
2016-05-29T09:31:49.814Z,16.36
2016-05-29T09:33:02.773Z,16.5
2016-05-29T09:33:49.898Z,16.43
2016-05-29T09:34:49.964Z,16.43
2016-05-29T09:35:51.341Z,16.37
2016-05-29T09:37:02.690Z,16.31
2016-05-29T09:37:51.487Z,16.31
2016-05-29T09:38:50.005Z,16.21
2016-05-29T09:39:50.024Z,15.99
2016-05-29T09:40:50.151Z,16.05
2016-05-29T09:41:49.904Z,15.92
2016-05-29T09:42:54.344Z,15.9
2016-05-29T09:43:50.097Z,16
2016-05-29T09:44:49.974Z,16.16
2016-05-29T09:45:50.165Z,16.06
2016-05-29T09:46:51.574Z,16
2016-05-29T09:48:09.423Z,16.1
2016-05-29T09:48:50.219Z,16.28
2016-05-29T09:49:50.254Z,16.16
2016-05-29T09:50:50.538Z,16.18
2016-05-29T09:51:50.431Z,16.24
2016-05-29T09:53:04.357Z,16.31
2016-05-29T09:53:50.436Z,16.31
2016-05-29T09:55:09.567Z,16.12
2016-05-29T09:56:02.960Z,16.06
2016-05-29T09:56:50.241Z,16.12
2016-05-29T09:57:53.025Z,16.16
2016-05-29T09:58:50.465Z,16.13
2016-05-29T09:59:50.468Z,16
2016-05-29T10:00:50.486Z,15.96
2016-05-29T10:01:50.505Z,15.98
2016-05-29T10:02:53.445Z,15.84
2016-05-29T10:03:50.542Z,15.76
2016-05-29T10:04:50.622Z,15.76
2016-05-29T10:05:54.108Z,15.91
2016-05-29T10:06:50.456Z,15.88
2016-05-29T10:07:53.349Z,15.83
2016-05-29T10:08:50.648Z,15.76
2016-05-29T10:09:50.666Z,15.76
2016-05-29T10:10:50.701Z,15.78
2016-05-29T10:11:50.735Z,15.69
2016-05-29T10:12:53.738Z,15.84
2016-05-29T10:13:50.786Z,15.88
2016-05-29T10:14:50.633Z,15.76
2016-05-29T10:16:03.638Z,15.83
2016-05-29T10:17:03.579Z,15.88
2016-05-29T10:17:55.469Z,15.83
2016-05-29T10:18:50.878Z,15.87
2016-05-29T10:19:50.928Z,15.98
2016-05-29T10:20:51.821Z,15.96
2016-05-29T10:21:50.808Z,15.96
2016-05-29T10:23:03.674Z,16.06
2016-05-29T10:23:50.846Z,16.06
2016-05-29T10:24:50.832Z,16.09
2016-05-29T10:25:51.037Z,16.06
2016-05-29T10:26:51.135Z,16
2016-05-29T10:27:55.684Z,16.16
2016-05-29T10:28:50.952Z,16.17
2016-05-29T10:30:10.348Z,16.25
2016-05-29T10:30:51.223Z,16.29
2016-05-29T10:31:51.164Z,16.37
2016-05-29T10:32:54.759Z,16.54
2016-05-29T10:33:51.184Z,16.58
2016-05-29T10:35:03.971Z,16.59
2016-05-29T10:35:51.112Z,16.61
2016-05-29T10:36:51.192Z,16.57
2016-05-29T10:37:54.383Z,16.58
2016-05-29T10:38:51.307Z,16.55
2016-05-29T10:39:51.341Z,16.69
2016-05-29T10:40:51.344Z,16.76
2016-05-29T10:42:04.130Z,16.51
2016-05-29T10:42:56.161Z,16.58
2016-05-29T10:43:51.274Z,16.61
2016-05-29T10:44:51.433Z,16.47
2016-05-29T10:45:51.310Z,16.51
2016-05-29T10:46:51.500Z,16.58
2016-05-29T10:47:53.832Z,16.69
2016-05-29T10:48:51.553Z,16.62
2016-05-29T10:49:51.571Z,16.65
2016-05-29T10:50:51.590Z,16.58
2016-05-29T10:51:51.811Z,16.55
2016-05-29T10:52:52.454Z,16.62
2016-05-29T10:53:51.644Z,16.5
2016-05-29T10:54:51.679Z,16.46
2016-05-29T10:55:51.696Z,16.49
2016-05-29T10:56:51.715Z,16.57
2016-05-29T10:57:55.655Z,16.58
2016-05-29T10:58:51.798Z,16.55
2016-05-29T10:59:51.660Z,16.51
2016-05-29T11:00:51.804Z,16.54
2016-05-29T11:01:51.885Z,16.55
2016-05-29T11:02:55.247Z,16.62
2016-05-29T11:03:51.953Z,16.66
2016-05-29T11:04:51.893Z,16.65
2016-05-29T11:05:51.786Z,16.62
2016-05-29T11:06:52.133Z,16.57
2016-05-29T11:07:54.089Z,16.57
2016-05-29T11:08:52.153Z,16.43
2016-05-29T11:09:52.125Z,16.43
2016-05-29T11:10:52.378Z,16.46
2016-05-29T11:11:52.286Z,16.41
2016-05-29T11:12:55.711Z,16.43
2016-05-29T11:13:52.964Z,16.31
2016-05-29T11:14:52.575Z,16.43
2016-05-29T11:15:52.188Z,16.43
2016-05-29T11:16:52.705Z,16.47
2016-05-29T11:17:52.240Z,16.57
2016-05-29T11:18:52.352Z,16.58
2016-05-29T11:19:52.230Z,16.68
2016-05-29T11:20:53.201Z,16.77
2016-05-29T11:21:51.954Z,16.83
2016-05-29T11:22:54.722Z,16.83
2016-05-29T11:23:52.319Z,16.72
2016-05-29T11:24:52.181Z,16.8
2016-05-29T11:25:52.418Z,16.72
2016-05-29T11:26:52.373Z,16.55
2016-05-29T11:28:02.190Z,16.49
2016-05-29T11:28:52.426Z,16.59
2016-05-29T11:29:52.475Z,16.59
2016-05-29T11:30:52.479Z,16.62
2016-05-29T11:31:52.496Z,16.68
2016-05-29T11:32:55.296Z,16.79
2016-05-29T11:33:52.533Z,16.79
2016-05-29T11:34:52.411Z,16.72
2016-05-29T11:35:52.945Z,16.86
2016-05-29T11:36:52.651Z,16.98
2016-05-29T11:37:52.637Z,17.12
2016-05-29T11:38:52.703Z,17.16
2016-05-29T11:39:52.658Z,17.27
2016-05-29T11:40:52.678Z,17.32
2016-05-29T11:41:52.711Z,17.42
2016-05-29T11:42:55.573Z,17.39
2016-05-29T11:43:52.763Z,17.34
2016-05-29T11:44:52.781Z,17.42
2016-05-29T11:45:52.691Z,17.69
2016-05-29T11:46:52.833Z,17.75
2016-05-29T11:47:55.774Z,17.75
2016-05-29T11:48:52.746Z,17.73
2016-05-29T11:49:52.904Z,17.44
2016-05-29T11:50:53.313Z,17.41
2016-05-29T11:51:52.972Z,17.31
2016-05-29T11:52:54.318Z,17.34
2016-05-29T11:53:52.884Z,17.27
2016-05-29T11:54:53.012Z,17.32
2016-05-29T11:56:05.626Z,17.35
2016-05-29T11:56:53.063Z,17.24
2016-05-29T11:58:18.757Z,17.37
2016-05-29T11:58:53.101Z,17.35
2016-05-29T11:59:53.134Z,17.41
2016-05-29T12:00:53.262Z,17.32
2016-05-29T12:01:53.156Z,17.39
2016-05-29T12:03:12.239Z,17.37
2016-05-29T12:03:53.067Z,17.39
2016-05-29T12:05:19.057Z,17.39
2016-05-29T12:05:53.713Z,17.35
2016-05-29T12:06:53.278Z,17.37
2016-05-29T12:07:54.734Z,17.3
2016-05-29T12:08:53.346Z,17.28
2016-05-29T12:09:53.364Z,17.17
2016-05-29T12:10:53.414Z,17.05
2016-05-29T12:11:53.433Z,16.91
2016-05-29T12:12:54.794Z,16.97
2016-05-29T12:13:53.500Z,17.1
2016-05-29T12:14:53.503Z,17.1
2016-05-29T12:15:53.522Z,17.07
2016-05-29T12:16:53.524Z,17.02
2016-05-29T12:17:56.980Z,17.04
2016-05-29T12:19:12.641Z,16.98
2016-05-29T12:19:59.875Z,16.97
2016-05-29T12:21:25.694Z,16.84
2016-05-29T12:22:12.774Z,16.65
2016-05-29T12:22:55.352Z,16.59
2016-05-29T12:23:53.668Z,16.5
2016-05-29T12:24:53.592Z,16.32
2016-05-29T12:25:53.752Z,16.31
2016-05-29T12:26:53.754Z,16.24
2016-05-29T12:27:54.725Z,16.22
2016-05-29T12:28:53.790Z,16.13
2016-05-29T12:29:53.809Z,16.08
2016-05-29T12:30:53.843Z,16.02
2016-05-29T12:31:53.705Z,16.02
2016-05-29T12:32:53.910Z,16.06
2016-05-29T12:33:57.022Z,16.13
2016-05-29T12:34:53.775Z,16.08
2016-05-29T12:35:55.123Z,16.08
2016-05-29T12:37:06.565Z,16.16
2016-05-29T12:37:57.049Z,16.12
2016-05-29T12:39:13.226Z,15.96
2016-05-29T12:39:53.929Z,15.94
2016-05-29T12:42:09.328Z,15.92
2016-05-29T12:43:12.314Z,16.02
2016-05-29T12:44:09.411Z,15.94
2016-05-29T12:45:09.430Z,15.91
2016-05-29T12:46:09.433Z,15.83
2016-05-29T12:47:28.654Z,15.96
2016-05-29T12:48:09.422Z,15.96
2016-05-29T12:49:09.472Z,15.9
2016-05-29T12:50:09.506Z,15.84
2016-05-29T12:51:09.383Z,15.96
2016-05-29T12:52:09.574Z,15.98
2016-05-29T12:53:09.420Z,15.9
2016-05-29T12:54:09.580Z,15.91
2016-05-29T12:55:09.660Z,15.94
2016-05-29T12:56:09.632Z,16.08
2016-05-29T12:57:09.899Z,16.06
2016-05-29T12:58:09.684Z,16.16
2016-05-29T12:59:09.718Z,16.17
2016-05-29T13:00:09.721Z,16.16
2016-05-29T13:01:09.567Z,16.37
2016-05-29T13:02:09.803Z,16.51
2016-05-29T13:03:09.634Z,16.44
2016-05-29T13:04:09.965Z,16.62
2016-05-29T13:05:09.984Z,16.51
2016-05-29T13:06:09.877Z,16.62
2016-05-29T13:07:10.004Z,16.68
2016-05-29T13:08:09.992Z,16.72
2016-05-29T13:09:09.995Z,16.92
2016-05-29T13:10:09.653Z,16.99
2016-05-29T13:11:10.000Z,16.97
2016-05-29T13:12:09.939Z,16.92
2016-05-29T13:13:09.834Z,16.95
2016-05-29T13:14:10.055Z,16.99